Time;durP1;ratioP1;P1;durP2;ratioP2;P2;SDS_P1;SDS_P2;PMS_P1;PMS_P2;Temp;Humidity;BMP_temperature;BMP_pressure;BME280_temperature;BME280_humidity;BME280_pressure;Samples;Min_cycle;Max_cycle;Signal;HPM_P1;HPM_P2
2022/03/09 00:02:13;;;;;;;34.20;19.33;;;;;;;0.11;nan;95024.78;5047013;28;20210;-70
2022/03/09 00:04:39;;;;;;;35.53;20.10;;;;;;;-0.27;nan;95020.38;5047550;28;20198;-70
2022/03/09 00:07:11;;;;;;;36.70;19.30;;;;;;;-0.25;nan;95026.22;5046705;28;20199;-72
2022/03/09 00:09:41;;;;;;;35.83;20.23;;;;;;;-0.22;nan;95026.22;5046671;28;20360;-72
2022/03/09 00:12:10;;;;;;;33.13;19.33;;;;;;;0.06;nan;95028.91;5046831;28;20677;-71
2022/03/09 00:14:38;;;;;;;35.27;20.77;;;;;;;-0.03;nan;95028.03;5046126;28;20194;-69
2022/03/09 00:17:05;;;;;;;34.50;20.17;;;;;;;-0.04;nan;95023.88;5047691;28;20284;-72
2022/03/09 00:19:31;;;;;;;36.83;20.33;;;;;;;-0.31;nan;95033.66;5047127;28;20628;-72
2022/03/09 00:21:58;;;;;;;32.60;19.43;;;;;;;-0.50;nan;95026.88;5048011;28;20214;-70
2022/03/09 00:24:25;;;;;;;39.70;22.60;;;;;;;-0.66;nan;95030.03;5047204;28;20198;-71
2022/03/09 00:26:53;;;;;;;34.47;19.97;;;;;;;-0.81;nan;95033.25;5047476;28;20190;-71
2022/03/09 00:29:19;;;;;;;38.40;19.93;;;;;;;-0.93;nan;95028.97;5047037;28;20987;-71
2022/03/09 00:31:48;;;;;;;39.33;20.30;;;;;;;-0.92;nan;95025.66;5047371;28;20256;-70
2022/03/09 00:34:14;;;;;;;35.50;20.93;;;;;;;-1.16;nan;95025.41;5047330;28;20230;-70
2022/03/09 00:36:41;;;;;;;33.03;18.70;;;;;;;-1.08;nan;95026.31;5048051;28;20621;-70
2022/03/09 00:39:08;;;;;;;34.10;20.40;;;;;;;-0.82;nan;95027.41;5046151;28;20207;-69
2022/03/09 00:41:35;;;;;;;38.80;20.10;;;;;;;-0.79;nan;95027.44;5046562;28;20665;-70
2022/03/09 00:44:02;;;;;;;36.57;20.53;;;;;;;-0.77;nan;95025.81;5046935;28;20294;-70
2022/03/09 00:46:28;;;;;;;31.53;19.73;;;;;;;-0.70;nan;95014.19;5047134;28;20198;-71
2022/03/09 00:48:57;;;;;;;34.57;20.23;;;;;;;-0.50;nan;95016.88;5046850;28;20230;-70
2022/03/09 00:51:24;;;;;;;33.80;20.10;;;;;;;-0.63;nan;95005.09;5046314;28;20230;-70
2022/03/09 00:53:51;;;;;;;32.07;19.00;;;;;;;-0.60;nan;95003.47;5047675;28;21691;-70
2022/03/09 00:56:18;;;;;;;31.80;18.90;;;;;;;-0.48;nan;95005.22;5046777;28;20229;-72
2022/03/09 00:58:46;;;;;;;32.73;19.27;;;;;;;-0.76;nan;95006.69;5047649;28;20205;-69
2022/03/09 01:01:13;;;;;;;30.80;18.57;;;;;;;-0.68;nan;95003.41;5047192;28;20206;-69
2022/03/09 01:03:40;;;;;;;38.20;20.03;;;;;;;-0.40;nan;95006.97;5046630;28;20198;-72
2022/03/09 01:06:08;;;;;;;32.30;18.33;;;;;;;-0.31;nan;95000.38;5047803;28;20201;-71
2022/03/09 01:08:35;;;;;;;35.83;20.00;;;;;;;-0.26;nan;94993.75;5046647;28;20283;-72
2022/03/09 01:11:02;;;;;;;31.93;19.37;;;;;;;0.03;nan;94997.25;5045863;28;20291;-72
2022/03/09 01:13:29;;;;;;;31.50;19.83;;;;;;;-0.04;nan;94985.56;5046968;28;20275;-72
2022/03/09 01:15:55;;;;;;;28.10;17.73;;;;;;;-0.07;nan;94980.53;5047230;28;20206;-71
2022/03/09 01:18:22;;;;;;;34.67;18.93;;;;;;;-0.16;nan;94981.31;5045757;28;20198;-71
2022/03/09 01:20:49;;;;;;;33.70;17.80;;;;;;;-0.08;nan;94983.88;5045405;28;20634;-72
2022/03/09 01:23:17;;;;;;;35.80;18.80;;;;;;;-0.16;nan;94981.31;5045922;28;20254;-72
2022/03/09 01:25:44;;;;;;;32.50;19.20;;;;;;;-0.15;nan;94987.97;5046616;28;20256;-70
2022/03/09 01:28:11;;;;;;;37.30;19.90;;;;;;;-0.34;nan;94993.69;5046603;28;20206;-71
2022/03/09 01:30:38;;;;;;;32.97;17.97;;;;;;;-0.18;nan;94987.13;5045084;28;20225;-72
2022/03/09 01:33:04;;;;;;;26.80;18.30;;;;;;;-0.24;nan;94977.94;5045955;28;20230;-72
2022/03/09 01:35:31;;;;;;;32.40;18.53;;;;;;;-0.29;nan;94988.72;5047420;28;20251;-72
2022/03/09 01:37:58;;;;;;;31.00;18.00;;;;;;;-0.32;nan;94989.53;5045990;28;20205;-71
2022/03/09 01:40:26;;;;;;;28.17;17.80;;;;;;;-0.22;nan;94996.25;5045754;28;20728;-72
2022/03/09 01:42:53;;;;;;;29.17;18.37;;;;;;;-0.11;nan;94994.66;5046224;28;20295;-72
2022/03/09 01:45:20;;;;;;;34.00;18.93;;;;;;;0.00;nan;94983.06;5046132;28;20256;-73
2022/03/09 01:47:48;;;;;;;32.67;17.43;;;;;;;-0.09;nan;94998.03;5046856;28;20232;-72
2022/03/09 01:50:15;;;;;;;28.50;16.77;;;;;;;-0.23;nan;94989.59;5047284;28;20265;-72
2022/03/09 01:52:43;;;;;;;34.10;18.53;;;;;;;-0.16;nan;94995.47;5047577;28;20199;-73
2022/03/09 01:55:11;;;;;;;31.57;16.37;;;;;;;-0.15;nan;94995.47;5048492;28;20263;-72
2022/03/09 01:57:40;;;;;;;28.30;17.63;;;;;;;-0.14;nan;94999.66;5047031;28;20206;-71
2022/03/09 02:00:08;;;;;;;32.70;18.27;;;;;;;-0.29;nan;94992.06;5045562;28;20213;-72
2022/03/09 02:02:35;;;;;;;37.70;19.03;;;;;;;-0.27;nan;94997.06;5047596;28;20241;-73
2022/03/09 02:05:03;;;;;;;29.77;17.90;;;;;;;-0.40;nan;94996.13;5045811;28;20320;-72
2022/03/09 02:10:19;;;;;;;34.20;16.93;;;;;;;-0.03;nan;94987.22;5045239;28;20781;-72
2022/03/09 02:12:48;;;;;;;28.03;16.90;;;;;;;-0.22;nan;94993.75;5046173;28;20267;-72
2022/03/09 02:15:15;;;;;;;29.80;18.53;;;;;;;-0.29;nan;94989.56;5046330;28;20215;-72
2022/03/09 02:17:42;;;;;;;28.43;16.63;;;;;;;-0.20;nan;94997.09;5046074;28;20646;-73
2022/03/09 02:20:09;;;;;;;27.37;16.93;;;;;;;-0.23;nan;94992.09;5047045;28;20202;-72
2022/03/09 02:22:54;;;;;;;28.20;17.27;;;;;;;-0.09;nan;94987.19;5050202;28;20214;-71
2022/03/09 02:25:21;;;;;;;32.63;18.17;;;;;;;-0.15;nan;94990.47;5049670;28;20216;-72
2022/03/09 02:27:49;;;;;;;31.30;18.10;;;;;;;-0.30;nan;94985.41;5049327;28;20776;-73
2022/03/09 02:30:17;;;;;;;32.57;18.27;;;;;;;-0.26;nan;94989.59;5049222;28;20313;-73
2022/03/09 02:32:46;;;;;;;28.50;17.77;;;;;;;-0.30;nan;94987.91;5049869;28;20585;-73
2022/03/09 02:35:15;;;;;;;34.40;19.27;;;;;;;-0.66;nan;94975.97;5050233;28;20202;-72
2022/03/09 02:37:44;;;;;;;34.17;18.57;;;;;;;-0.74;nan;94985.88;5050906;28;20583;-73
2022/03/09 02:40:13;;;;;;;33.77;18.97;;;;;;;-0.69;nan;94988.41;5048288;28;20202;-72
2022/03/09 02:42:41;;;;;;;36.27;18.93;;;;;;;-0.67;nan;94981.78;5049300;28;20221;-73
2022/03/09 02:45:08;;;;;;;29.20;17.33;;;;;;;-0.60;nan;94988.50;5049675;28;20214;-70
2022/03/09 02:47:35;;;;;;;29.23;18.30;;;;;;;-0.47;nan;94984.44;5048801;28;20682;-73
2022/03/09 02:50:01;;;;;;;33.47;17.90;;;;;;;-0.29;nan;94989.56;5049009;28;20238;-73
2022/03/09 02:52:28;;;;;;;34.63;19.43;;;;;;;-0.21;nan;94995.44;5051978;28;20203;-73
2022/03/09 02:54:56;;;;;;;33.50;19.53;;;;;;;-0.19;nan;94985.44;5051346;28;20225;-71
2022/03/09 02:57:23;;;;;;;29.43;18.53;;;;;;;-0.23;nan;94989.59;5051625;28;20257;-70
2022/03/09 02:59:51;;;;;;;33.10;19.13;;;;;;;-0.38;nan;94987.00;5051521;28;20210;-71
2022/03/09 03:02:18;;;;;;;28.83;17.77;;;;;;;-0.23;nan;94989.59;5051396;28;20297;-71
2022/03/09 03:04:45;;;;;;;37.47;18.60;;;;;;;-0.13;nan;95001.31;5050731;28;20198;-71
2022/03/09 03:07:11;;;;;;;28.90;17.13;;;;;;;-0.20;nan;94993.78;5051794;28;20194;-71
2022/03/09 03:09:38;;;;;;;33.83;17.90;;;;;;;-0.22;nan;94996.25;5048013;28;20247;-71
2022/03/09 03:12:07;;;;;;;37.27;18.53;;;;;;;-0.27;nan;94990.41;5049230;28;20202;-71
2022/03/09 03:14:34;;;;;;;32.77;18.30;;;;;;;-0.50;nan;94995.25;5049524;28;20202;-71
2022/03/09 03:17:01;;;;;;;29.67;18.00;;;;;;;-0.58;nan;94989.34;5049333;28;20221;-71
2022/03/09 03:19:28;;;;;;;30.20;18.67;;;;;;;-0.70;nan;95005.06;5048722;28;20209;-71
2022/03/09 03:21:54;;;;;;;31.97;18.43;;;;;;;-0.59;nan;94999.31;5049050;28;20691;-71
2022/03/09 03:24:21;;;;;;;27.87;17.37;;;;;;;-0.75;nan;95000.88;5049601;28;20217;-72
2022/03/09 03:26:48;;;;;;;28.30;17.37;;;;;;;-0.63;nan;95002.63;5049670;28;20202;-72
2022/03/09 03:29:16;;;;;;;32.80;18.60;;;;;;;-0.68;nan;94997.56;5049529;28;20853;-71
2022/03/09 03:31:43;;;;;;;31.93;18.43;;;;;;;-0.61;nan;94996.81;5047465;28;20750;-72
2022/03/09 03:34:11;;;;;;;31.17;18.00;;;;;;;-0.70;nan;95007.53;5048809;28;20217;-71
2022/03/09 03:36:38;;;;;;;32.67;18.73;;;;;;;-0.75;nan;95005.84;5049468;28;20661;-71
2022/03/09 03:39:05;;;;;;;33.87;18.77;;;;;;;-0.75;nan;95001.72;5049365;28;20243;-72
2022/03/09 03:41:32;;;;;;;34.40;17.57;;;;;;;-0.75;nan;95004.19;5048104;28;20206;-72
2022/03/09 03:43:58;;;;;;;30.63;18.67;;;;;;;-0.66;nan;95005.09;5050088;28;20237;-71
2022/03/09 03:46:27;;;;;;;31.63;18.17;;;;;;;-0.96;nan;95003.97;5049053;28;20203;-70
2022/03/09 03:48:53;;;;;;;26.20;17.10;;;;;;;-0.74;nan;95005.84;5050511;28;20202;-72
2022/03/09 03:51:20;;;;;;;27.93;17.00;;;;;;;-0.71;nan;95007.53;5047264;28;20292;-71
2022/03/09 03:53:47;;;;;;;29.30;18.47;;;;;;;-0.66;nan;95003.41;5048388;28;20202;-72
2022/03/09 03:56:14;;;;;;;31.30;18.10;;;;;;;-0.83;nan;95004.94;5047999;28;20218;-73
2022/03/09 03:58:40;;;;;;;28.67;17.80;;;;;;;-0.73;nan;95001.69;5045807;28;20390;-71
2022/03/09 04:01:07;;;;;;;29.37;17.33;;;;;;;-0.81;nan;94999.16;5046915;28;21528;-72
2022/03/09 04:03:35;;;;;;;38.17;19.33;;;;;;;-0.83;nan;94989.97;5046236;28;20209;-73
2022/03/09 04:06:03;;;;;;;36.50;19.57;;;;;;;-0.73;nan;94992.53;5048328;28;20198;-73
2022/03/09 04:08:29;;;;;;;33.13;19.07;;;;;;;-0.87;nan;95006.56;5047527;28;20202;-72
2022/03/09 04:10:56;;;;;;;87.50;42.30;;;;;;;-0.76;nan;95002.53;5047796;28;20234;-72
2022/03/09 04:13:23;;;;;;;59.43;28.17;;;;;;;-0.88;nan;95004.06;5047888;28;20300;-71
2022/03/09 04:15:50;;;;;;;37.83;19.83;;;;;;;-0.81;nan;94993.31;5046789;28;20682;-72
2022/03/09 04:18:16;;;;;;;32.47;18.13;;;;;;;-0.78;nan;95006.66;5047726;28;20198;-72
2022/03/09 04:20:45;;;;;;;35.40;20.53;;;;;;;-0.88;nan;94999.91;5047405;28;20700;-72
2022/03/09 04:23:12;;;;;;;38.20;18.37;;;;;;;-0.92;nan;95000.69;5046927;28;20322;-72
2022/03/09 04:25:39;;;;;;;32.63;18.47;;;;;;;-0.98;nan;95003.13;5047242;28;20213;-72
2022/03/09 04:28:06;;;;;;;30.13;18.47;;;;;;;-1.02;nan;95003.09;5047061;28;20194;-72
2022/03/09 04:30:33;;;;;;;30.77;18.37;;;;;;;-0.93;nan;94998.19;5047521;28;20283;-72
2022/03/09 04:33:00;;;;;;;34.43;19.33;;;;;;;-0.96;nan;94998.16;5047336;28;20199;-72
2022/03/09 04:35:27;;;;;;;31.27;17.97;;;;;;;-0.91;nan;95004.88;5046477;28;20199;-72
2022/03/09 04:37:55;;;;;;;33.03;17.60;;;;;;;-0.83;nan;94999.97;5047376;28;20210;-72
2022/03/09 04:40:22;;;;;;;28.87;18.17;;;;;;;-0.81;nan;95004.13;5048382;28;21062;-72
2022/03/09 04:42:49;;;;;;;30.73;17.93;;;;;;;-0.83;nan;95004.94;5047188;28;20215;-73
2022/03/09 04:45:16;;;;;;;37.80;18.83;;;;;;;-0.97;nan;94997.31;5046204;28;20219;-72
2022/03/09 04:47:43;;;;;;;35.93;19.57;;;;;;;-0.76;nan;94997.53;5047296;28;20198;-71
2022/03/09 04:50:10;;;;;;;38.00;19.70;;;;;;;-0.72;nan;95006.69;5048063;28;20246;-73
2022/03/09 04:52:37;;;;;;;34.97;18.00;;;;;;;-0.78;nan;95005.81;5049019;28;20556;-71
2022/03/09 04:55:06;;;;;;;36.53;19.10;;;;;;;-0.68;nan;95007.56;5048219;28;20214;-72
2022/03/09 04:57:34;;;;;;;31.07;17.47;;;;;;;-0.63;nan;95012.59;5049727;28;20285;-72
2022/03/09 05:00:00;;;;;;;32.80;18.47;;;;;;;-0.96;nan;95008.97;5049219;28;20194;-72
2022/03/09 05:02:27;;;;;;;28.33;17.27;;;;;;;-0.75;nan;95024.16;5049473;28;20198;-72
2022/03/09 05:04:54;;;;;;;27.63;17.67;;;;;;;-0.89;nan;95019.84;5049292;28;20202;-72
2022/03/09 05:07:21;;;;;;;29.90;17.33;;;;;;;-0.80;nan;95019.94;5048292;28;20256;-72
2022/03/09 05:09:47;;;;;;;31.73;18.63;;;;;;;-0.95;nan;95020.63;5049910;28;20252;-71
2022/03/09 05:12:15;;;;;;;29.57;17.57;;;;;;;-0.72;nan;95019.16;5050195;28;20194;-72
2022/03/09 05:14:42;;;;;;;31.20;18.57;;;;;;;-0.98;nan;95014.75;5048722;28;20203;-73
2022/03/09 05:17:10;;;;;;;36.00;18.83;;;;;;;-1.03;nan;95014.75;5049441;28;20278;-73
2022/03/09 05:19:36;;;;;;;33.43;18.93;;;;;;;-0.79;nan;95029.94;5049312;28;20202;-73
2022/03/09 05:22:04;;;;;;;39.20;20.97;;;;;;;-0.73;nan;95032.47;5049694;28;20206;-74
2022/03/09 05:24:31;;;;;;;35.43;19.87;;;;;;;-0.76;nan;95031.63;5049399;28;20288;-73
2022/03/09 05:26:57;;;;;;;34.87;19.57;;;;;;;-0.76;nan;95034.97;5048150;28;20198;-72
2022/03/09 05:29:26;;;;;;;28.33;17.37;;;;;;;-0.71;nan;95035.81;5048146;28;20202;-72
2022/03/09 05:31:52;;;;;;;87.90;40.00;;;;;;;-0.55;nan;95044.28;5046569;28;20306;-72
2022/03/09 05:34:19;;;;;;;38.10;21.67;;;;;;;-0.81;nan;95039.06;5047670;28;20194;-72
2022/03/09 05:36:46;;;;;;;36.73;21.27;;;;;;;-0.59;nan;95044.25;5047668;28;21384;-71
2022/03/09 05:39:13;;;;;;;33.40;18.17;;;;;;;-0.65;nan;95044.19;5047566;28;20202;-73
2022/03/09 05:41:40;;;;;;;38.47;18.00;;;;;;;-0.58;nan;95040.94;5046218;28;20203;-72
2022/03/09 05:44:07;;;;;;;32.57;19.33;;;;;;;-0.23;nan;95049.53;5047225;28;20206;-71
2022/03/09 05:46:36;;;;;;;35.23;19.30;;;;;;;0.02;nan;95048.03;5046787;28;20203;-71
2022/03/09 05:49:03;;;;;;;30.77;18.10;;;;;;;0.30;nan;95041.53;5047799;28;20233;-73
2022/03/09 05:51:30;;;;;;;29.33;17.97;;;;;;;0.82;nan;95041.75;5044467;28;20605;-72
2022/03/09 05:53:56;;;;;;;31.83;18.50;;;;;;;0.99;nan;95048.47;5047525;28;20202;-71
2022/03/09 05:56:23;;;;;;;30.57;19.10;;;;;;;1.47;nan;95048.59;5048983;28;20716;-73
2022/03/09 05:58:50;;;;;;;31.30;18.63;;;;;;;2.23;nan;95041.00;5051026;28;20198;-73
2022/03/09 06:01:17;;;;;;;34.20;18.03;;;;;;;2.66;nan;95047.59;5049834;28;20198;-73
2022/03/09 06:03:45;;;;;;;23.93;16.83;;;;;;;3.00;nan;95054.97;5049552;28;20248;-73
2022/03/09 06:06:12;;;;;;;30.80;18.77;;;;;;;3.74;nan;95046.16;5050150;28;20203;-73
2022/03/09 06:08:39;;;;;;;28.17;17.43;;;;;;;3.64;nan;95044.56;5049591;28;20696;-72
2022/03/09 06:11:05;;;;;;;26.87;17.60;;;;;;;4.02;nan;95045.06;5049245;28;20723;-73
2022/03/09 06:13:32;;;;;;;30.93;18.37;;;;;;;4.48;nan;95047.16;5049833;28;20240;-72
2022/03/09 06:15:59;;;;;;;28.23;18.10;;;;;;;5.06;nan;95042.28;5049991;28;20625;-72
2022/03/09 06:18:26;;;;;;;26.30;17.83;;;;;;;4.87;nan;95045.06;5050428;28;20206;-72
2022/03/09 06:20:54;;;;;;;25.03;17.27;;;;;;;4.89;nan;95041.66;5048904;28;20678;-72
2022/03/09 06:23:20;;;;;;;23.67;16.53;;;;;;;4.66;nan;95052.00;5049078;28;20201;-72
2022/03/09 06:25:47;;;;;;;24.63;16.55;;;;;;;5.08;nan;95053.19;5050027;28;20198;-73
2022/03/09 06:28:15;;;;;;;26.57;18.00;;;;;;;5.23;nan;95049.63;5050217;28;20202;-72
2022/03/09 06:30:42;;;;;;;24.20;16.02;;;;;;;6.05;nan;95053.47;5049779;28;20237;-73
2022/03/09 06:33:10;;;;;;;27.43;17.50;;;;;;;6.01;nan;95054.38;5048670;28;20673;-73
2022/03/09 06:35:37;;;;;;;26.53;16.40;;;;;;;7.04;nan;95053.38;5048996;28;20226;-72
2022/03/09 06:38:06;;;;;;;24.93;16.20;;;;;;;7.23;nan;95062.22;5049430;28;20312;-71
2022/03/09 06:40:33;;;;;;;28.03;17.40;;;;;;;7.04;nan;95055.88;5050250;28;21794;-72
2022/03/09 06:43:00;;;;;;;27.90;16.88;;;;;;;7.18;nan;95058.16;5048292;28;20673;-72
2022/03/09 06:45:27;;;;;;;23.70;16.10;;;;;;;7.40;nan;95047.56;5049603;28;20708;-73
2022/03/09 06:47:54;;;;;;;39.90;16.23;;;;;;;8.02;nan;95052.88;5048896;28;20201;-73
2022/03/09 06:50:21;;;;;;;23.98;16.13;;;;;;;-142.91;100.00;56616.03;5049455;28;20280;-73
2022/03/09 06:52:48;;;;;;;25.25;16.98;;;;;;;8.65;nan;95052.19;5049582;28;20205;-73
2022/03/09 06:55:16;;;;;;;29.30;18.08;;;;;;;8.05;nan;95062.94;5049139;28;20706;-73
2022/03/09 06:57:43;;;;;;;22.88;16.67;;;;;;;6.78;nan;95051.34;5049573;28;20602;-73
2022/03/09 07:00:12;;;;;;;29.33;18.75;;;;;;;5.30;nan;95066.31;5049367;28;20682;-73
2022/03/09 07:02:39;;;;;;;27.07;18.07;;;;;;;4.91;nan;95061.81;5048310;28;20202;-73
2022/03/09 07:05:07;;;;;;;27.43;18.20;;;;;;;4.10;nan;95073.50;5048658;28;20255;-71
2022/03/09 07:07:34;;;;;;;30.97;18.83;;;;;;;4.57;nan;95062.16;5048373;28;20206;-73
2022/03/09 07:10:01;;;;;;;25.17;16.90;;;;;;;4.09;nan;95076.88;5047239;28;20593;-72
2022/03/09 07:12:29;;;;;;;23.60;17.13;;;;;;;3.94;nan;95072.00;5049181;28;20234;-72
2022/03/09 07:14:56;;;;;;;32.33;17.98;;;;;;;3.98;nan;95071.09;5048727;28;20649;-73
2022/03/09 07:17:23;;;;;;;27.23;17.17;;;;;;;4.12;nan;95067.63;5048736;28;20198;-72
2022/03/09 07:19:51;;;;;;;31.90;19.63;;;;;;;4.35;nan;95064.06;5048715;28;20202;-73
2022/03/09 07:22:17;;;;;;;30.10;17.73;;;;;;;5.73;nan;95060.69;5048434;28;20248;-73
2022/03/09 07:24:44;;;;;;;31.20;18.47;;;;;;;7.33;nan;95056.13;5049197;28;20199;-72
2022/03/09 07:27:11;;;;;;;29.23;17.88;;;;;;;7.94;nan;95056.44;5048159;28;20196;-72
2022/03/09 07:29:39;;;;;;;27.27;16.83;;;;;;;9.92;nan;95049.34;5048294;28;20252;-72
2022/03/09 07:32:08;;;;;;;29.58;17.50;;;;;;;11.82;nan;95032.56;5047042;28;20218;-72
2022/03/09 07:34:35;;;;;;;24.70;16.70;;;;;;;13.24;nan;95037.69;5047875;28;20202;-71
2022/03/09 07:37:02;;;;;;;22.95;16.85;;;;;;;13.78;nan;95036.06;5048055;28;20211;-71
2022/03/09 07:39:29;;;;;;;25.60;16.05;;;;;;;11.93;nan;95032.09;5047884;28;20202;-71
2022/03/09 07:41:57;;;;;;;21.48;15.32;;;;;;;10.60;nan;95046.31;5047837;28;20263;-72
2022/03/09 07:44:24;;;;;;;24.05;15.40;;;;;;;8.93;nan;95039.56;5048780;28;20692;-71
2022/03/09 07:46:53;;;;;;;21.80;15.68;;;;;;;8.37;nan;95038.56;5047539;28;20662;-73
2022/03/09 07:49:20;;;;;;;24.77;16.52;;;;;;;7.62;nan;95042.84;5047573;28;20709;-74
2022/03/09 07:51:48;;;;;;;27.05;16.40;;;;;;;7.80;nan;95031.47;5049109;28;20233;-73
2022/03/09 07:54:16;;;;;;;23.33;16.67;;;;;;;7.45;nan;95045.75;5048675;28;20586;-73
2022/03/09 07:56:43;;;;;;;26.38;16.25;;;;;;;7.47;nan;95043.19;5047961;28;21161;-71
2022/03/09 07:59:12;;;;;;;20.88;15.00;;;;;;;7.75;nan;95033.28;5047701;28;20297;-73
2022/03/09 08:01:40;;;;;;;23.88;16.58;;;;;;;8.49;nan;95028.09;5048393;28;20210;-73
2022/03/09 08:04:09;;;;;;;25.83;17.35;;;;;;;8.89;nan;95027.06;5048583;28;20202;-72
2022/03/09 08:06:38;;;;;;;26.57;17.37;;;;;;;8.94;nan;95030.28;5048097;28;20201;-73
2022/03/09 08:09:05;;;;;;;25.98;18.20;;;;;;;9.35;nan;95022.34;5047537;28;20213;-73
2022/03/09 08:11:32;;;;;;;22.40;16.55;;;;;;;9.63;nan;95024.06;5047811;28;20230;-73
2022/03/09 08:13:59;;;;;;;23.60;16.88;;;;;;;9.99;nan;95015.28;5047897;28;20205;-72
2022/03/09 08:16:26;;;;;;;24.30;17.00;;;;;;;9.76;nan;95022.78;5048184;28;20199;-73
2022/03/09 08:18:53;;;;;;;24.05;16.85;;;;;;;9.73;nan;95022.88;5046985;28;20194;-73
2022/03/09 08:21:21;;;;;;;32.92;19.15;;;;;;;10.25;nan;95023.78;5047548;28;20203;-72
2022/03/09 08:23:48;;;;;;;21.98;16.38;;;;;;;10.17;nan;95019.75;5047131;28;20194;-71
2022/03/09 08:26:15;;;;;;;27.60;17.52;;;;;;;9.60;nan;95026.69;5047803;28;20251;-71
2022/03/09 08:28:43;;;;;;;25.35;15.25;;;;;;;8.70;nan;95014.88;5046355;28;20237;-71
2022/03/09 08:31:10;;;;;;;17.98;14.77;;;;;;;8.22;nan;95026.25;5046976;28;20241;-72
2022/03/09 08:33:36;;;;;;;24.20;16.48;;;;;;;8.32;nan;95017.56;5048255;28;20210;-72
2022/03/09 08:36:04;;;;;;;22.63;15.75;;;;;;;9.27;nan;95014.09;5048346;28;20248;-73
2022/03/09 08:38:33;;;;;;;27.00;15.77;;;;;;;9.96;nan;95001.84;5046986;28;20230;-72
2022/03/09 08:41:00;;;;;;;20.85;13.85;;;;;;;10.30;nan;95014.31;5046813;28;20735;-72
2022/03/09 08:43:26;;;;;;;29.17;17.90;;;;;;;9.58;nan;95010.66;5047130;28;20229;-71
2022/03/09 08:45:53;;;;;;;24.63;15.77;;;;;;;8.70;nan;95006.44;5047484;28;20202;-72
2022/03/09 08:48:20;;;;;;;32.30;18.52;;;;;;;8.34;nan;95023.44;5047400;28;20202;-72
2022/03/09 08:50:47;;;;;;;29.17;18.52;;;;;;;9.39;nan;95023.91;5047502;28;20226;-73
2022/03/09 08:53:16;;;;;;;26.67;17.35;;;;;;;9.10;nan;95019.69;5046388;28;20263;-74
2022/03/09 08:55:44;;;;;;;23.48;16.23;;;;;;;10.17;nan;95016.38;5047505;28;21916;-74
2022/03/09 08:58:10;;;;;;;22.08;15.23;;;;;;;11.20;nan;95009.44;5048689;28;20199;-71
2022/03/09 09:00:37;;;;;;;24.42;16.45;;;;;;;11.63;nan;95005.28;5046024;28;20202;-71
2022/03/09 09:03:05;;;;;;;25.23;15.65;;;;;;;11.87;nan;95004.38;5047140;28;20657;-72
2022/03/09 09:05:31;;;;;;;19.60;13.90;;;;;;;11.17;nan;95004.44;5046922;28;20672;-71
2022/03/09 09:07:59;;;;;;;22.63;16.35;;;;;;;11.23;nan;95004.22;5046213;28;20210;-73
2022/03/09 09:10:26;;;;;;;20.60;15.35;;;;;;;11.14;nan;95002.84;5047119;28;20202;-71
2022/03/09 09:12:57;;;;;;;25.15;17.08;;;;;;;10.91;nan;95002.84;5046291;28;20395;-74
2022/03/09 09:15:24;;;;;;;23.50;17.15;;;;;;;10.09;nan;95006.50;5047499;28;20213;-70
2022/03/09 09:17:57;;;;;;;23.42;16.20;;;;;;;10.29;nan;94997.41;5047590;28;20202;-70
2022/03/09 09:20:25;;;;;;;21.55;14.98;;;;;;;10.29;nan;94995.69;5045661;28;20707;-68
2022/03/09 09:22:52;;;;;;;22.08;14.18;;;;;;;10.72;nan;95000.13;5046072;28;20211;-71
2022/03/09 09:25:20;;;;;;;16.98;13.35;;;;;;;9.86;nan;94993.72;5046938;28;20206;-70
2022/03/09 09:27:47;;;;;;;15.32;11.15;;;;;;;9.88;nan;94989.41;5047520;28;20462;-72
2022/03/09 09:30:15;;;;;;;19.75;13.77;;;;;;;8.53;nan;95005.19;5048167;28;20569;-73
2022/03/09 09:32:42;;;;;;;16.98;12.88;;;;;;;8.73;nan;95004.66;5051100;28;20233;-72
2022/03/09 09:35:10;;;;;;;17.55;13.10;;;;;;;9.64;nan;95000.34;5050788;28;20237;-73
2022/03/09 09:37:37;;;;;;;16.80;11.65;;;;;;;9.84;nan;95005.63;5050594;28;20229;-73
2022/03/09 09:40:06;;;;;;;20.52;13.82;;;;;;;9.36;nan;95003.72;5051276;28;20626;-71
2022/03/09 09:42:33;;;;;;;21.50;13.52;;;;;;;9.10;nan;94996.03;5050606;28;20204;-74
2022/03/09 09:45:01;;;;;;;19.48;13.25;;;;;;;9.22;nan;95005.81;5050248;28;20548;-72
2022/03/09 09:47:31;;;;;;;23.95;12.32;;;;;;;8.74;nan;94993.66;5051081;28;20681;-71
2022/03/09 09:49:57;;;;;;;20.63;13.10;;;;;;;8.35;nan;95002.31;5049672;28;20268;-71
2022/03/09 09:52:26;;;;;;;20.85;12.30;;;;;;;8.18;nan;95000.16;5051152;28;20234;-73
2022/03/09 09:54:55;;;;;;;12.65;10.77;;;;;;;7.23;nan;95009.16;5049282;28;20764;-72
2022/03/09 09:57:22;;;;;;;14.57;10.77;;;;;;;6.74;nan;95009.31;5050202;28;20255;-72
2022/03/09 09:59:50;;;;;;;13.70;10.70;;;;;;;6.89;nan;95003.16;5050001;28;20260;-73
2022/03/09 10:02:17;;;;;;;15.90;11.10;;;;;;;6.49;nan;95008.97;5050249;28;20600;-72
2022/03/09 10:04:47;;;;;;;26.92;16.65;;;;;;;6.49;nan;95003.91;5049666;28;20209;-72
2022/03/09 10:07:14;;;;;;;20.45;12.98;;;;;;;6.43;nan;95014.94;5049958;28;20206;-73
2022/03/09 10:09:42;;;;;;;16.37;12.03;;;;;;;6.50;nan;95000.53;5049535;28;21536;-72
2022/03/09 10:12:10;;;;;;;17.80;12.43;;;;;;;6.64;nan;94998.59;5049542;28;20275;-72
2022/03/09 10:14:48;;;;;;;20.43;11.63;;;;;;;6.63;nan;94991.88;5049143;28;20668;-72
2022/03/09 10:17:16;;;;;;;15.32;11.02;;;;;;;6.95;nan;95003.00;5050502;28;20208;-72
2022/03/09 10:19:44;;;;;;;19.90;14.07;;;;;;;6.25;nan;95005.19;5049180;28;20198;-71
2022/03/09 10:22:30;;;;;;;48.58;22.65;;;;;;;6.58;nan;94987.78;5050266;28;20206;-72
2022/03/09 10:25:00;;;;;;;38.97;21.17;;;;;;;7.02;nan;94992.75;5049208;28;20662;-70
2022/03/09 10:27:40;;;;;;;27.83;16.42;;;;;;;7.23;nan;94988.09;5047654;28;20743;-71
2022/03/09 10:30:10;;;;;;;16.63;12.10;;;;;;;7.30;nan;94982.88;5049529;28;20190;-71
2022/03/09 10:32:48;;;;;;;17.73;12.38;;;;;;;7.28;nan;94976.19;5049521;28;20226;-73
2022/03/09 10:35:17;;;;;;;14.48;11.25;;;;;;;6.84;nan;94980.50;5049375;28;20692;-71
2022/03/09 10:37:48;;;;;;;13.50;11.52;;;;;;;6.77;nan;94984.84;5049019;28;20203;-70
2022/03/09 10:40:17;;;;;;;17.13;12.32;;;;;;;6.94;nan;94981.13;5048695;28;20198;-71
2022/03/09 10:42:44;;;;;;;15.45;12.43;;;;;;;6.95;nan;94978.56;5048595;28;20722;-70
2022/03/09 10:45:11;;;;;;;16.40;12.73;;;;;;;6.98;nan;94967.59;5048969;28;20813;-71
2022/03/09 10:47:41;;;;;;;21.93;13.07;;;;;;;7.00;nan;94975.97;5049702;28;20206;-71
2022/03/09 10:50:18;;;;;;;17.33;12.47;;;;;;;7.17;nan;94968.88;5048976;28;21901;-70
2022/03/09 10:52:49;;;;;;;16.95;11.40;;;;;;;7.06;nan;94971.63;5048309;28;20238;-71
2022/03/09 10:55:25;;;;;;;19.10;12.03;;;;;;;6.96;nan;94969.31;5048815;28;20226;-72
2022/03/09 10:57:52;;;;;;;18.63;11.77;;;;;;;7.13;nan;94968.09;5048986;28;20194;-71
2022/03/09 11:00:41;;;;;;;16.20;11.23;;;;;;;6.81;nan;94966.25;5047940;28;20256;-70
2022/03/09 11:03:13;;;;;;;13.83;10.87;;;;;;;6.86;nan;94958.59;5048337;28;20218;-71
2022/03/09 11:05:50;;;;;;;15.20;10.83;;;;;;;6.95;nan;94965.13;5049045;28;20236;-72
2022/03/09 11:08:20;;;;;;;16.93;12.03;;;;;;;6.87;nan;94962.78;5047998;28;20202;-71
2022/03/09 11:10:48;;;;;;;13.90;10.45;;;;;;;7.18;nan;94965.44;5048796;28;20221;-71
2022/03/09 11:13:15;;;;;;;18.50;12.10;;;;;;;7.32;nan;94963.47;5052510;28;20230;-71
2022/03/09 11:15:44;;;;;;;15.90;10.25;;;;;;;7.13;nan;94958.00;5068343;28;20711;-71
2022/03/09 11:18:14;;;;;;;17.13;10.93;;;;;;;7.01;nan;94958.25;5067687;28;20206;-71
2022/03/09 11:20:41;;;;;;;20.70;10.85;;;;;;;7.33;nan;94949.13;5067002;28;20730;-73
2022/03/09 11:23:08;;;;;;;55.47;25.33;;;;;;;7.76;nan;94954.00;5067913;28;20194;-69
2022/03/09 11:25:38;;;;;;;11.68;9.80;;;;;;;8.27;nan;94941.72;5068451;28;20674;-72
2022/03/09 11:28:06;;;;;;;16.92;11.48;;;;;;;8.05;nan;94946.50;5067920;28;20195;-72
2022/03/09 11:30:34;;;;;;;11.40;9.13;;;;;;;8.00;nan;94942.44;5066853;28;20210;-72
2022/03/09 11:33:03;;;;;;;12.27;9.15;;;;;;;7.38;nan;94949.84;5070520;28;20222;-73
2022/03/09 11:35:48;;;;;;;12.93;8.63;;;;;;;7.32;nan;94943.25;5069937;28;20255;-73
2022/03/09 11:38:43;;;;;;;10.77;9.02;;;;;;;7.02;nan;94943.91;5069543;28;20190;-71
2022/03/09 11:41:22;;;;;;;10.35;8.23;;;;;;;6.73;nan;94936.94;5070011;28;20199;-71
2022/03/09 11:43:49;;;;;;;11.60;9.18;;;;;;;6.46;nan;94938.34;5071772;28;20240;-72